createdAt,value
2023-04-23T00:02:01.651Z,88.38
2023-04-23T00:04:36.810Z,87.68
2023-04-23T00:07:09.225Z,91.18
2023-04-23T00:09:39.655Z,91.32
2023-04-23T00:12:10.211Z,94.05
2023-04-23T00:14:39.600Z,87.32
2023-04-23T00:17:11.449Z,90.82
2023-04-23T00:19:41.172Z,91.20
2023-04-23T00:22:11.947Z,95.68
2023-04-23T00:24:41.796Z,90.03
2023-04-23T00:27:11.212Z,90.78
2023-04-23T00:29:40.831Z,99.85
2023-04-23T00:32:10.465Z,89.07
2023-04-23T00:34:41.147Z,97.18
2023-04-23T00:37:12.088Z,92.18
2023-04-23T00:39:41.331Z,93.75
2023-04-23T00:42:12.585Z,100.55
2023-04-23T00:44:42.909Z,98.45
2023-04-23T00:47:13.496Z,98.95
2023-04-23T00:49:44.530Z,99.28
2023-04-23T00:52:15.160Z,103.78
2023-04-23T00:54:44.684Z,106.78
2023-04-23T00:57:14.726Z,104.60
2023-04-23T00:59:44.272Z,100.13
2023-04-23T01:02:14.584Z,102.18
2023-04-23T01:04:45.955Z,103.05
2023-04-23T01:07:16.826Z,94.75
2023-04-23T01:09:46.161Z,100.95
2023-04-23T01:12:16.848Z,103.60
2023-04-23T01:14:46.368Z,103.70
2023-04-23T01:17:15.717Z,96.47
2023-04-23T01:19:46.998Z,100.25
2023-04-23T01:22:20.625Z,98.93
2023-04-23T01:24:50.783Z,91.07
2023-04-23T01:27:22.396Z,97.28
2023-04-23T01:29:55.055Z,98.22
2023-04-23T01:32:27.086Z,92.55
2023-04-23T01:39:54.628Z,89.40
2023-04-23T01:42:24.929Z,101.70
2023-04-23T01:44:58.084Z,86.57
2023-04-23T01:47:29.491Z,94.45
2023-04-23T01:50:01.429Z,89.68
2023-04-23T01:52:33.884Z,85.55
2023-04-23T01:55:05.976Z,87.38
2023-04-23T01:57:37.473Z,83.35
2023-04-23T02:00:11.905Z,81.80
2023-04-23T02:02:47.067Z,81.03
2023-04-23T02:05:20.446Z,82.35
2023-04-23T02:07:52.500Z,76.95
2023-04-23T02:10:25.685Z,79.87
2023-04-23T02:12:57.187Z,80.53
2023-04-23T02:15:29.022Z,80.05
2023-04-23T02:17:59.180Z,82.68
2023-04-23T02:20:28.502Z,81.82
2023-04-23T02:22:57.769Z,78.68
2023-04-23T02:25:32.286Z,79.57
2023-04-23T02:28:06.451Z,78.75
2023-04-23T02:30:38.429Z,78.72
2023-04-23T02:33:07.960Z,77.88
2023-04-23T02:35:37.245Z,73.50
2023-04-23T02:38:06.670Z,74.85
2023-04-23T02:40:40.566Z,67.70
2023-04-23T02:43:09.733Z,78.05
2023-04-23T02:45:41.091Z,70.05
2023-04-23T02:48:10.320Z,68.10
2023-04-23T02:50:40.394Z,64.40
2023-04-23T02:53:12.196Z,61.87
2023-04-23T02:55:42.795Z,60.95
2023-04-23T02:58:12.496Z,60.85
2023-04-23T03:00:43.278Z,59.95
2023-04-23T03:03:12.887Z,58.63
2023-04-23T03:05:42.432Z,59.85
2023-04-23T03:08:11.881Z,59.30
2023-04-23T03:10:42.509Z,58.25
2023-04-23T03:13:11.813Z,63.50
2023-04-23T03:15:41.897Z,56.20
2023-04-23T03:18:11.191Z,50.95
2023-04-23T03:20:41.349Z,53.70
2023-04-23T03:23:10.532Z,47.45
2023-04-23T03:25:43.753Z,51.55
2023-04-23T03:28:12.963Z,47.85
2023-04-23T03:30:42.508Z,52.85
2023-04-23T03:33:13.046Z,48.90
2023-04-23T03:35:42.793Z,51.70
2023-04-23T03:38:17.295Z,50.00
2023-04-23T03:40:48.448Z,47.38
2023-04-23T03:43:19.018Z,47.55
2023-04-23T03:46:16.898Z,50.33
2023-04-23T03:48:46.554Z,50.55
2023-04-23T03:51:23.955Z,44.30
2023-04-23T03:53:53.215Z,46.17
2023-04-23T03:56:44.604Z,47.72
2023-04-23T03:59:40.154Z,46.13
2023-04-23T04:02:11.625Z,47.08
2023-04-23T04:04:46.812Z,48.45
2023-04-23T04:07:17.004Z,46.65
2023-04-23T04:09:49.449Z,46.38
2023-04-23T04:12:22.334Z,48.90
2023-04-23T04:14:51.753Z,46.90
2023-04-23T04:17:21.161Z,43.38
2023-04-23T04:19:50.666Z,47.92
2023-04-23T04:22:20.487Z,42.88
2023-04-23T04:24:52.252Z,44.50
2023-04-23T04:27:22.941Z,46.50
2023-04-23T04:29:52.571Z,43.97
2023-04-23T04:32:23.676Z,43.40
2023-04-23T04:34:53.156Z,45.67
2023-04-23T04:37:22.683Z,41.78
2023-04-23T04:39:51.765Z,46.33
2023-04-23T04:42:22.492Z,42.67
2023-04-23T04:44:52.709Z,49.03
2023-04-23T04:47:22.298Z,49.20
2023-04-23T04:49:57.310Z,42.40
2023-04-23T04:52:27.005Z,46.17
2023-04-23T04:54:58.765Z,45.67
2023-04-23T04:57:29.510Z,39.47
2023-04-23T04:59:58.964Z,46.38
2023-04-23T05:02:28.500Z,44.60
2023-04-23T05:04:58.561Z,38.88
2023-04-23T05:07:27.938Z,40.60
2023-04-23T05:09:57.158Z,46.72
2023-04-23T05:12:27.951Z,44.38
2023-04-23T05:14:58.928Z,43.78
2023-04-23T05:17:28.639Z,43.33
2023-04-23T05:19:58.140Z,43.80
2023-04-23T05:22:28.874Z,44.92
2023-04-23T05:24:59.132Z,46.38
2023-04-23T05:27:28.599Z,42.75
2023-04-23T05:29:59.684Z,41.90
2023-04-23T05:32:29.234Z,40.60
2023-04-23T05:35:00.370Z,38.38
2023-04-23T05:37:30.438Z,40.10
2023-04-23T05:39:59.956Z,38.85
2023-04-23T05:42:29.722Z,48.05
2023-04-23T05:45:00.908Z,37.72
2023-04-23T05:47:30.546Z,46.80
2023-04-23T05:50:00.230Z,38.25
2023-04-23T05:52:31.685Z,37.95
2023-04-23T05:55:02.109Z,41.63
2023-04-23T05:57:33.924Z,39.17
2023-04-23T06:00:09.801Z,38.70
2023-04-23T06:02:42.748Z,38.28
2023-04-23T06:05:12.649Z,38.03
2023-04-23T06:07:42.695Z,37.45
2023-04-23T06:10:13.072Z,34.83
2023-04-23T06:12:42.539Z,39.05
2023-04-23T06:15:13.351Z,41.70
2023-04-23T06:17:44.552Z,35.17
2023-04-23T06:20:14.226Z,35.08
2023-04-23T06:22:43.592Z,39.50
2023-04-23T06:25:12.911Z,32.92
2023-04-23T06:27:42.343Z,30.60
2023-04-23T06:30:20.792Z,28.30
2023-04-23T06:32:50.376Z,27.00
2023-04-23T06:35:24.794Z,26.98
2023-04-23T06:37:53.959Z,25.77
2023-04-23T06:40:23.372Z,23.75
2023-04-23T06:42:52.995Z,29.38
2023-04-23T06:45:37.284Z,27.17
2023-04-23T06:48:08.670Z,27.30
2023-04-23T06:50:38.229Z,25.13
2023-04-23T06:53:07.638Z,28.48
2023-04-23T06:55:37.091Z,26.55
2023-04-23T06:58:07.313Z,25.98
2023-04-23T07:00:38.328Z,23.02
2023-04-23T07:03:08.114Z,21.55
2023-04-23T07:05:37.486Z,23.15
2023-04-23T07:08:06.809Z,19.90
2023-04-23T07:10:36.381Z,23.17
2023-04-23T07:13:05.784Z,21.67
2023-04-23T07:15:34.869Z,21.95
2023-04-23T07:18:06.794Z,25.00
2023-04-23T07:20:36.885Z,17.20
2023-04-23T07:23:08.491Z,17.17
2023-04-23T07:25:41.558Z,16.67
2023-04-23T07:32:28.232Z,15.40
2023-04-23T07:34:58.801Z,23.95
2023-04-23T07:37:27.898Z,17.48
2023-04-23T07:39:59.033Z,18.88
2023-04-23T07:42:28.108Z,17.95
2023-04-23T07:44:56.846Z,14.38
2023-04-23T07:47:25.877Z,15.30
2023-04-23T07:50:01.294Z,19.38
2023-04-23T07:52:32.456Z,13.88
2023-04-23T07:55:01.240Z,17.90
2023-04-23T07:57:30.102Z,18.83
2023-04-23T07:59:58.834Z,17.45
2023-04-23T08:02:28.625Z,16.73
2023-04-23T08:05:01.103Z,12.93
2023-04-23T08:07:30.534Z,11.55
2023-04-23T08:10:03.089Z,14.65
2023-04-23T08:12:31.972Z,14.25
2023-04-23T08:15:00.790Z,13.68
2023-04-23T08:17:36.252Z,14.30
2023-04-23T08:20:07.788Z,10.75
2023-04-23T08:27:31.871Z,8.32
2023-04-23T08:30:01.773Z,13.00
2023-04-23T08:32:31.290Z,14.55
2023-04-23T08:35:00.828Z,11.35
2023-04-23T08:37:31.833Z,14.77
2023-04-23T08:40:02.196Z,11.73
2023-04-23T08:42:44.740Z,11.77
2023-04-23T08:45:14.751Z,13.57
2023-04-23T08:47:45.045Z,11.75
2023-04-23T08:50:16.661Z,11.85
2023-04-23T08:52:51.222Z,13.10
2023-04-23T08:55:21.884Z,8.88
2023-04-23T08:57:52.436Z,16.63
2023-04-23T09:00:24.310Z,14.38
2023-04-23T09:02:54.940Z,11.43
2023-04-23T09:05:24.788Z,15.00
2023-04-23T09:07:55.541Z,19.50
2023-04-23T09:10:26.802Z,14.65
2023-04-23T09:12:55.689Z,17.05
2023-04-23T09:15:24.512Z,13.10
2023-04-23T09:17:53.490Z,10.98
2023-04-23T09:20:22.306Z,11.52
2023-04-23T09:22:52.755Z,12.40
2023-04-23T09:25:24.895Z,19.75
2023-04-23T09:27:54.199Z,22.23
2023-04-23T09:30:25.755Z,17.63
2023-04-23T09:32:55.304Z,13.05
2023-04-23T09:35:24.162Z,14.32
2023-04-23T09:37:53.659Z,13.20
2023-04-23T09:40:25.863Z,15.50
2023-04-23T09:42:55.083Z,11.52
2023-04-23T09:45:25.849Z,10.77
2023-04-23T09:47:56.852Z,14.40
2023-04-23T09:50:34.108Z,15.60
2023-04-23T09:53:02.888Z,11.23
2023-04-23T09:55:37.493Z,9.18
2023-04-23T09:58:07.234Z,15.57
2023-04-23T10:00:38.978Z,15.25
2023-04-23T10:03:08.984Z,13.15
2023-04-23T10:08:17.666Z,15.63
2023-04-23T10:13:21.560Z,16.55
2023-04-23T10:15:50.352Z,14.85
2023-04-23T10:18:21.631Z,11.88
2023-04-23T10:20:55.220Z,8.90
2023-04-23T10:23:25.671Z,12.23
2023-04-23T10:25:57.154Z,16.55
2023-04-23T10:28:32.071Z,17.38
2023-04-23T10:31:01.137Z,12.48
2023-04-23T10:33:39.792Z,11.60
2023-04-23T10:36:15.583Z,20.70
2023-04-23T10:38:54.949Z,12.32
2023-04-23T10:41:35.838Z,19.05
2023-04-23T10:44:05.347Z,19.23
2023-04-23T10:46:37.916Z,7.82
2023-04-23T10:49:09.740Z,14.68
2023-04-23T10:54:11.533Z,11.27
2023-04-23T10:56:46.171Z,11.15
2023-04-23T10:59:22.080Z,9.10
2023-04-23T11:01:51.915Z,13.00
2023-04-23T11:04:22.374Z,9.80
2023-04-23T11:06:59.280Z,10.88
2023-04-23T11:09:33.590Z,7.47
2023-04-23T11:12:07.929Z,14.77
2023-04-23T11:14:38.685Z,11.60
2023-04-23T11:17:07.650Z,8.68
2023-04-23T11:19:37.134Z,12.25
2023-04-23T11:22:08.376Z,13.75
2023-04-23T11:24:42.116Z,12.73
2023-04-23T11:27:14.562Z,8.55
2023-04-23T11:29:45.146Z,8.07
2023-04-23T11:32:16.699Z,10.30
2023-04-23T11:34:46.916Z,11.50
2023-04-23T11:37:16.530Z,3.85
2023-04-23T11:39:49.378Z,6.80
2023-04-23T11:42:21.649Z,11.60
2023-04-23T11:44:50.442Z,11.80
2023-04-23T11:47:21.336Z,15.13
2023-04-23T11:49:50.204Z,9.30
2023-04-23T11:57:14.815Z,6.63
2023-04-23T11:59:46.125Z,6.93
2023-04-23T12:02:16.624Z,10.35
2023-04-23T12:04:46.725Z,8.45
2023-04-23T12:07:25.852Z,11.60
2023-04-23T12:10:01.838Z,13.07
2023-04-23T12:12:35.845Z,13.45
2023-04-23T12:15:08.659Z,10.10
2023-04-23T12:17:39.149Z,8.95
2023-04-23T12:20:13.988Z,11.15
2023-04-23T12:22:45.123Z,5.75
2023-04-23T12:25:15.988Z,10.02
2023-04-23T12:27:46.638Z,7.88
2023-04-23T12:30:18.196Z,8.35
2023-04-23T12:32:48.195Z,8.35
2023-04-23T12:35:23.453Z,7.15
2023-04-23T12:37:53.865Z,8.77
2023-04-23T12:40:25.347Z,7.30
2023-04-23T12:42:54.211Z,4.13
2023-04-23T12:45:24.721Z,5.38
2023-04-23T12:47:53.614Z,8.27
2023-04-23T12:50:22.428Z,8.02
2023-04-23T12:52:51.157Z,10.35
2023-04-23T12:55:20.075Z,10.73
2023-04-23T12:57:49.023Z,4.40
2023-04-23T13:00:18.314Z,8.15
2023-04-23T13:02:48.666Z,10.10
2023-04-23T13:05:17.629Z,13.48
2023-04-23T13:07:48.193Z,5.40
2023-04-23T13:10:17.321Z,5.97
2023-04-23T13:12:48.342Z,9.35
2023-04-23T13:20:14.881Z,12.27
2023-04-23T13:22:44.005Z,7.13
2023-04-23T13:25:14.471Z,5.30
2023-04-23T13:27:44.955Z,7.45
2023-04-23T13:30:15.629Z,3.58
2023-04-23T13:32:45.393Z,6.75
2023-04-23T13:35:18.263Z,6.82
2023-04-23T13:37:48.415Z,8.80
2023-04-23T13:40:18.365Z,13.18
2023-04-23T13:42:50.431Z,17.10
2023-04-23T13:45:20.332Z,10.80
2023-04-23T13:47:52.672Z,3.95
2023-04-23T13:50:24.338Z,12.25
2023-04-23T13:52:53.754Z,4.55
2023-04-23T13:55:23.824Z,5.47
2023-04-23T13:57:54.724Z,4.60
2023-04-23T14:00:23.538Z,5.63
2023-04-23T14:02:52.476Z,24.00
2023-04-23T14:05:21.304Z,14.52
2023-04-23T14:07:53.540Z,4.88
2023-04-23T14:10:22.540Z,3.45
2023-04-23T14:12:52.690Z,11.48
2023-04-23T14:15:21.775Z,5.97
2023-04-23T14:17:50.595Z,4.35
2023-04-23T14:20:20.169Z,3.15
2023-04-23T14:22:52.672Z,5.10
2023-04-23T14:25:31.904Z,5.53
2023-04-23T14:28:05.117Z,5.90
2023-04-23T14:30:36.254Z,7.07
2023-04-23T14:33:06.457Z,9.55
2023-04-23T14:38:11.893Z,7.50
2023-04-23T14:40:44.247Z,8.93
2023-04-23T14:43:15.828Z,4.53
2023-04-23T14:45:47.203Z,11.02
2023-04-23T14:48:17.421Z,7.22
2023-04-23T14:50:48.011Z,9.82
2023-04-23T14:53:18.160Z,7.97
2023-04-23T14:55:49.818Z,6.45
2023-04-23T14:58:19.303Z,6.47
2023-04-23T15:00:51.169Z,5.03
2023-04-23T15:03:21.358Z,8.02
2023-04-23T15:05:53.154Z,6.65
2023-04-23T15:13:37.615Z,10.35
2023-04-23T15:16:26.297Z,9.90
2023-04-23T15:19:07.900Z,5.45
2023-04-23T15:21:38.312Z,7.78
2023-04-23T15:24:08.642Z,4.22
2023-04-23T15:26:39.113Z,10.85
2023-04-23T15:29:10.632Z,11.95
2023-04-23T15:31:40.278Z,8.50
2023-04-23T15:34:12.352Z,7.95
2023-04-23T15:36:42.125Z,7.47
2023-04-23T15:39:12.133Z,8.55
2023-04-23T15:41:43.537Z,9.48
2023-04-23T15:44:17.710Z,9.80
2023-04-23T15:46:48.124Z,7.82
2023-04-23T15:49:20.093Z,6.45
2023-04-23T15:51:48.969Z,11.02
2023-04-23T15:55:42.495Z,4.05
2023-04-23T15:58:46.702Z,6.70
2023-04-23T16:01:18.385Z,3.80
2023-04-23T16:04:07.941Z,8.68
2023-04-23T16:06:45.992Z,5.88
2023-04-23T16:09:15.837Z,3.72
2023-04-23T16:11:45.479Z,5.10
2023-04-23T16:14:17.622Z,5.57
2023-04-23T16:16:51.171Z,8.37
2023-04-23T16:19:20.806Z,7.85
2023-04-23T16:21:51.117Z,2.22
2023-04-23T16:24:23.140Z,6.30
2023-04-23T16:26:53.947Z,5.50
2023-04-23T16:29:24.303Z,3.95
2023-04-23T16:31:56.120Z,4.72
2023-04-23T16:34:26.140Z,7.57
2023-04-23T16:36:55.051Z,5.43
2023-04-23T16:39:23.945Z,5.93
2023-04-23T16:41:52.742Z,3.53
2023-04-23T16:44:21.529Z,6.65
2023-04-23T16:46:50.849Z,3.85
2023-04-23T16:49:22.078Z,8.15
2023-04-23T16:51:50.961Z,3.85
2023-04-23T16:54:19.939Z,7.10
2023-04-23T16:56:51.079Z,6.05
2023-04-23T16:59:19.957Z,6.45
2023-04-23T17:06:44.367Z,6.18
2023-04-23T17:09:13.761Z,3.50
2023-04-23T17:11:43.611Z,8.45
2023-04-23T17:14:14.614Z,14.23
2023-04-23T17:16:44.731Z,31.00
2023-04-23T17:19:15.227Z,9.00
2023-04-23T17:21:46.694Z,6.07
2023-04-23T17:24:17.260Z,8.57
2023-04-23T17:26:48.814Z,5.88
2023-04-23T17:29:18.947Z,2.78
2023-04-23T17:31:48.764Z,6.93
2023-04-23T17:34:19.038Z,7.18
2023-04-23T17:37:02.627Z,10.85
2023-04-23T17:42:10.613Z,6.05
2023-04-23T17:44:40.705Z,6.05
2023-04-23T17:47:14.131Z,2.27
2023-04-23T17:49:43.553Z,5.57
2023-04-23T17:52:13.843Z,5.93
2023-04-23T17:54:43.232Z,3.28
2023-04-23T17:57:12.505Z,5.75
2023-04-23T17:59:41.771Z,9.27
2023-04-23T18:02:11.335Z,2.90
2023-04-23T18:04:40.225Z,3.20
2023-04-23T18:07:09.063Z,5.90
2023-04-23T18:09:39.213Z,6.45
2023-04-23T18:12:08.216Z,6.90
2023-04-23T18:14:37.033Z,4.25
2023-04-23T18:17:05.960Z,2.22
2023-04-23T18:19:35.070Z,4.55
2023-04-23T18:22:03.962Z,2.88
2023-04-23T18:24:32.796Z,6.47
2023-04-23T18:27:03.553Z,4.03
2023-04-23T18:29:32.407Z,8.45
2023-04-23T18:32:01.430Z,3.03
2023-04-23T18:34:32.936Z,2.30
2023-04-23T18:37:05.106Z,3.85
2023-04-23T18:39:34.121Z,4.05
2023-04-23T18:42:05.511Z,2.88
2023-04-23T18:44:35.055Z,2.40
2023-04-23T18:47:04.296Z,3.72
2023-04-23T18:49:44.978Z,6.93
2023-04-23T18:52:13.938Z,2.72
2023-04-23T18:54:44.261Z,4.95
2023-04-23T18:57:14.864Z,6.60
2023-04-23T18:59:43.724Z,28.85
2023-04-23T19:02:28.130Z,25.10
2023-04-23T19:05:04.460Z,6.45
2023-04-23T19:07:37.184Z,5.55
2023-04-23T19:10:06.595Z,3.90
2023-04-23T19:12:36.710Z,9.15
2023-04-23T19:15:05.998Z,6.03
2023-04-23T19:17:35.678Z,5.45
2023-04-23T19:20:04.446Z,3.28
2023-04-23T19:22:33.189Z,3.17
2023-04-23T19:25:01.886Z,5.65
2023-04-23T19:27:32.946Z,4.32
2023-04-23T19:30:03.083Z,6.20
2023-04-23T19:32:34.155Z,4.13
2023-04-23T19:35:02.995Z,4.72
2023-04-23T19:37:41.604Z,7.05
2023-04-23T19:40:12.083Z,5.88
2023-04-23T19:42:41.034Z,9.07
2023-04-23T19:45:12.788Z,8.05
2023-04-23T19:47:44.270Z,6.45
2023-04-23T19:50:14.169Z,5.57
2023-04-23T19:52:43.202Z,10.50
2023-04-23T19:55:14.540Z,9.20
2023-04-23T19:57:46.174Z,7.07
2023-04-23T20:00:17.163Z,5.30
2023-04-23T20:02:46.277Z,8.57
2023-04-23T20:05:15.159Z,7.68
2023-04-23T20:07:46.586Z,8.30
2023-04-23T20:10:17.428Z,15.88
2023-04-23T20:12:46.921Z,14.90
2023-04-23T20:15:17.481Z,10.98
2023-04-23T20:17:46.958Z,9.57
2023-04-23T20:20:16.540Z,9.75
2023-04-23T20:22:46.920Z,9.00
2023-04-23T20:25:15.701Z,6.57
2023-04-23T20:27:44.666Z,6.60
2023-04-23T20:30:16.793Z,8.95
2023-04-23T20:32:46.465Z,7.45
2023-04-23T20:35:15.676Z,5.95
2023-04-23T20:37:48.006Z,6.68
2023-04-23T20:40:16.709Z,7.53
2023-04-23T20:42:46.538Z,4.72
2023-04-23T20:45:17.090Z,5.40
2023-04-23T20:47:46.967Z,4.38
2023-04-23T20:50:15.708Z,1.65
2023-04-23T20:52:44.403Z,1.48
2023-04-23T20:55:13.069Z,3.60
2023-04-23T20:57:42.696Z,2.85
2023-04-23T21:00:14.253Z,3.30
2023-04-23T21:02:44.732Z,7.45
2023-04-23T21:05:16.049Z,1.38
2023-04-23T21:07:45.049Z,2.75
2023-04-23T21:10:16.388Z,3.72
2023-04-23T21:12:47.735Z,1.25
2023-04-23T21:15:17.361Z,0.88
2023-04-23T21:17:48.119Z,1.10
2023-04-23T21:20:17.032Z,1.65
2023-04-23T21:22:48.436Z,1.60
2023-04-23T21:25:17.426Z,2.03
2023-04-23T21:27:48.675Z,1.85
2023-04-23T21:30:24.374Z,5.30
2023-04-23T21:32:54.755Z,5.85
2023-04-23T21:35:26.643Z,1.85
2023-04-23T21:37:55.752Z,1.92
2023-04-23T21:40:26.706Z,1.60
2023-04-23T21:42:55.660Z,1.98
2023-04-23T21:45:25.224Z,2.92
2023-04-23T21:47:56.970Z,2.30
2023-04-23T21:50:27.542Z,2.17
2023-04-23T21:52:58.732Z,3.10
2023-04-23T21:55:31.022Z,2.53
2023-04-23T21:58:15.829Z,2.78
2023-04-23T22:00:48.047Z,2.97
2023-04-23T22:03:37.511Z,4.85
2023-04-23T22:06:09.550Z,4.72
2023-04-23T22:08:41.403Z,3.38
2023-04-23T22:11:10.622Z,4.47
2023-04-23T22:13:40.018Z,4.13
2023-04-23T22:16:24.535Z,6.28
2023-04-23T22:18:58.601Z,3.83
2023-04-23T22:21:28.429Z,4.57
2023-04-23T22:23:57.514Z,4.68
2023-04-23T22:26:26.279Z,8.30
2023-04-23T22:28:55.432Z,5.72
2023-04-23T22:31:24.161Z,6.60
2023-04-23T22:33:53.287Z,9.07
2023-04-23T22:36:23.775Z,10.57
2023-04-23T22:38:53.057Z,12.20
2023-04-23T22:41:22.287Z,9.63
2023-04-23T22:43:53.618Z,11.82
2023-04-23T22:46:22.915Z,6.60
2023-04-23T22:48:52.812Z,7.18
2023-04-23T22:51:23.090Z,6.03
2023-04-23T22:53:52.065Z,3.33
2023-04-23T22:56:22.205Z,2.38
2023-04-23T22:58:52.638Z,6.55
2023-04-23T23:01:22.578Z,4.25
2023-04-23T23:03:52.093Z,1.98
2023-04-23T23:06:22.246Z,3.20
2023-04-23T23:08:53.055Z,1.70
2023-04-23T23:11:22.469Z,2.40
2023-04-23T23:13:53.218Z,2.72
2023-04-23T23:16:23.033Z,2.72
2023-04-23T23:18:53.108Z,1.13
2023-04-23T23:21:23.206Z,2.25
2023-04-23T23:23:54.682Z,2.13
2023-04-23T23:26:24.115Z,0.93
2023-04-23T23:28:53.628Z,2.85
2023-04-23T23:31:26.172Z,2.70
2023-04-23T23:33:55.875Z,1.50
2023-04-23T23:36:30.128Z,0.80
2023-04-23T23:39:01.346Z,0.57
2023-04-23T23:41:31.392Z,0.52
2023-04-23T23:44:01.201Z,3.17
2023-04-23T23:46:30.774Z,1.02
2023-04-23T23:49:00.665Z,3.78
2023-04-23T23:51:33.277Z,1.55
2023-04-23T23:54:04.677Z,4.38
2023-04-23T23:56:34.683Z,9.13
2023-04-23T23:59:04.163Z,4.13
